createdAt,value
2018-06-15T00:04:13.829Z,5.17
2018-06-15T00:09:17.116Z,4.60
2018-06-15T00:14:20.383Z,4.97
2018-06-15T00:19:23.684Z,4.50
2018-06-15T00:24:26.992Z,5.70
2018-06-15T00:29:30.269Z,5.33
2018-06-15T00:34:33.571Z,5.20
2018-06-15T00:39:36.836Z,6.07
2018-06-15T00:44:40.109Z,5.53
2018-06-15T00:49:43.379Z,9.00
2018-06-15T00:54:46.677Z,9.80
2018-06-15T00:59:49.929Z,5.70
2018-06-15T01:04:53.185Z,4.90
2018-06-15T01:09:56.471Z,5.40
2018-06-15T01:14:59.744Z,5.13
2018-06-15T01:20:03.004Z,6.17
2018-06-15T01:25:06.257Z,5.60
2018-06-15T01:30:09.260Z,5.03
2018-06-15T01:35:12.494Z,6.67
2018-06-15T01:40:15.761Z,7.03
2018-06-15T01:45:19.025Z,5.50
2018-06-15T01:50:22.289Z,5.33
2018-06-15T01:55:25.555Z,6.53
2018-06-15T02:00:28.893Z,6.70
2018-06-15T02:05:32.596Z,6.10
2018-06-15T02:10:35.872Z,7.63
2018-06-15T02:15:39.149Z,9.67
2018-06-15T02:20:42.415Z,8.40
2018-06-15T02:25:45.693Z,7.13
2018-06-15T02:30:49.032Z,6.60
2018-06-15T02:35:52.285Z,6.87
2018-06-15T02:40:55.592Z,6.93
2018-06-15T02:45:58.860Z,6.03
2018-06-15T02:51:02.151Z,8.30
2018-06-15T02:56:05.418Z,8.93
2018-06-15T03:01:08.671Z,7.63
2018-06-15T03:06:11.956Z,7.47
2018-06-15T03:11:15.243Z,7.60
2018-06-15T03:16:18.509Z,6.97
2018-06-15T03:21:21.771Z,31.70
2018-06-15T03:26:25.027Z,26.00
2018-06-15T03:31:28.292Z,19.60
2018-06-15T03:36:31.550Z,10.70
2018-06-15T03:41:34.815Z,11.40
2018-06-15T03:46:38.665Z,9.20
2018-06-15T03:51:41.945Z,12.03
2018-06-15T03:56:45.221Z,10.10
2018-06-15T04:01:48.571Z,9.40
2018-06-15T04:06:51.893Z,9.33
2018-06-15T04:11:55.172Z,9.00
2018-06-15T04:16:58.420Z,8.53
2018-06-15T04:22:01.704Z,8.53
2018-06-15T04:27:05.045Z,8.57
2018-06-15T04:32:08.358Z,8.20
2018-06-15T04:37:11.689Z,8.53
2018-06-15T04:42:14.952Z,9.53
2018-06-15T04:47:18.224Z,9.70
2018-06-15T04:52:21.507Z,10.63
2018-06-15T04:57:24.795Z,9.47
2018-06-15T05:02:28.154Z,9.43
2018-06-15T05:07:31.425Z,11.67
2018-06-15T05:12:34.674Z,9.70
2018-06-15T05:17:37.937Z,10.20
2018-06-15T05:22:41.216Z,10.40
2018-06-15T05:27:44.463Z,9.33
2018-06-15T05:32:47.732Z,9.40
2018-06-15T05:37:50.995Z,9.70
2018-06-15T05:42:54.263Z,8.77
2018-06-15T05:47:57.534Z,10.10
2018-06-15T05:53:00.799Z,9.00
2018-06-15T05:58:04.080Z,8.57
2018-06-15T06:03:07.510Z,11.00
2018-06-15T06:08:10.769Z,10.97
2018-06-15T06:13:14.008Z,8.50
2018-06-15T06:18:18.946Z,12.17
2018-06-15T06:23:22.328Z,9.17
2018-06-15T06:28:25.349Z,9.10
2018-06-15T06:33:28.640Z,8.80
2018-06-15T06:38:31.946Z,11.70
2018-06-15T06:43:35.357Z,9.53
2018-06-15T06:48:38.654Z,7.97
2018-06-15T06:53:42.110Z,8.30
2018-06-15T06:58:45.570Z,8.30
2018-06-15T07:03:48.943Z,7.43
2018-06-15T07:08:51.963Z,6.90
2018-06-15T07:13:55.253Z,5.83
2018-06-15T07:18:58.543Z,7.37
2018-06-15T07:24:01.859Z,6.47
2018-06-15T07:29:05.124Z,8.17
2018-06-15T07:34:08.401Z,5.90
2018-06-15T07:39:12.495Z,6.63
2018-06-15T07:44:15.739Z,7.37
2018-06-15T07:49:18.995Z,6.13
2018-06-15T07:54:22.264Z,7.03
2018-06-15T07:59:25.276Z,5.57
2018-06-15T08:04:28.559Z,6.60
2018-06-15T08:09:31.816Z,5.73
2018-06-15T08:14:35.075Z,5.60
2018-06-15T08:19:38.339Z,5.97
2018-06-15T08:24:41.586Z,5.07
2018-06-15T08:29:44.865Z,5.40
2018-06-15T08:34:48.223Z,5.97
2018-06-15T08:39:51.467Z,5.07
2018-06-15T08:44:55.487Z,5.03
2018-06-15T08:49:58.844Z,4.13
2018-06-15T08:55:02.124Z,3.60
2018-06-15T09:00:05.392Z,3.77
2018-06-15T09:05:08.695Z,3.10
2018-06-15T09:10:11.981Z,4.37
2018-06-15T09:15:15.251Z,4.60
2018-06-15T09:20:18.502Z,2.67
2018-06-15T09:25:21.783Z,3.00
2018-06-15T09:30:25.065Z,3.25
2018-06-15T09:35:28.311Z,3.20
2018-06-15T09:40:31.576Z,4.53
2018-06-15T09:45:35.132Z,4.53
2018-06-15T09:50:38.399Z,3.45
2018-06-15T09:55:41.663Z,3.67
2018-06-15T10:01:21.855Z,4.10
2018-06-15T10:06:25.099Z,4.35
2018-06-15T10:11:28.368Z,3.62
2018-06-15T10:16:31.614Z,3.83
2018-06-15T10:21:34.906Z,3.58
2018-06-15T10:26:38.162Z,4.43
2018-06-15T10:31:41.289Z,5.47
2018-06-15T10:36:44.539Z,4.85
2018-06-15T10:41:47.784Z,3.25
2018-06-15T10:46:50.777Z,4.17
2018-06-15T10:51:54.060Z,4.10
2018-06-15T10:56:57.298Z,4.33
2018-06-15T11:02:00.566Z,4.62
2018-06-15T11:07:03.826Z,4.03
2018-06-15T11:12:06.824Z,3.42
2018-06-15T11:17:09.827Z,3.30
2018-06-15T11:22:13.076Z,3.90
2018-06-15T11:27:16.331Z,3.60
2018-06-15T11:32:19.595Z,2.70
2018-06-15T11:37:22.846Z,6.87
2018-06-15T11:42:26.108Z,6.47
2018-06-15T11:47:29.373Z,4.08
2018-06-15T11:52:32.631Z,2.80
2018-06-15T11:57:35.883Z,3.75
2018-06-15T12:02:39.147Z,3.22
2018-06-15T12:07:42.425Z,3.87
2018-06-15T12:12:45.671Z,3.15
2018-06-15T12:17:48.926Z,4.05
2018-06-15T12:22:52.169Z,4.62
2018-06-15T12:27:55.173Z,6.28
2018-06-15T12:33:04.840Z,4.25
2018-06-15T12:38:08.104Z,3.67
2018-06-15T12:43:11.404Z,3.30
2018-06-15T12:48:14.651Z,4.27
2018-06-15T12:53:17.924Z,3.33
2018-06-15T12:58:21.732Z,5.00
2018-06-15T13:03:25.532Z,2.33
2018-06-15T13:08:28.799Z,4.72
2018-06-15T13:13:32.059Z,3.70
2018-06-15T13:18:35.319Z,4.10
2018-06-15T13:23:38.639Z,4.35
2018-06-15T13:28:41.908Z,6.67
2018-06-15T13:33:45.391Z,2.25
2018-06-15T13:38:48.453Z,2.33
2018-06-15T13:43:51.998Z,4.67
2018-06-15T13:48:55.271Z,3.90
2018-06-15T13:53:58.559Z,2.62
2018-06-15T13:59:01.854Z,4.62
2018-06-15T14:04:05.394Z,5.65
2018-06-15T14:09:09.611Z,2.17
2018-06-15T14:14:12.866Z,2.75
2018-06-15T14:19:16.127Z,3.00
2018-06-15T14:24:19.427Z,4.95
2018-06-15T14:29:22.711Z,2.05
2018-06-15T14:34:25.976Z,2.20
2018-06-15T14:39:29.228Z,3.40
2018-06-15T14:44:32.504Z,4.47
2018-06-15T14:49:35.860Z,3.90
2018-06-15T14:54:39.135Z,2.55
2018-06-15T14:59:42.393Z,2.67
2018-06-15T15:04:45.709Z,3.10
2018-06-15T15:09:48.933Z,4.40
2018-06-15T15:14:52.270Z,3.15
2018-06-15T15:19:55.506Z,1.90
2018-06-15T15:24:58.779Z,2.27
2018-06-15T15:30:02.076Z,3.72
2018-06-15T15:35:05.513Z,2.50
2018-06-15T15:40:08.790Z,2.60
2018-06-15T15:45:11.789Z,4.25
2018-06-15T15:50:15.035Z,3.40
2018-06-15T15:55:18.400Z,2.60
2018-06-15T16:00:21.872Z,2.80
2018-06-15T16:05:25.124Z,2.70
2018-06-15T16:10:28.367Z,3.47
2018-06-15T16:15:31.618Z,2.67
2018-06-15T16:20:34.873Z,4.27
2018-06-15T16:25:37.882Z,2.70
2018-06-15T16:30:40.883Z,2.47
2018-06-15T16:35:43.941Z,2.50
2018-06-15T16:40:47.271Z,3.27
2018-06-15T16:45:50.831Z,4.40
2018-06-15T16:50:54.099Z,3.80
2018-06-15T16:55:58.200Z,2.73
2018-06-15T17:01:01.543Z,2.40
2018-06-15T17:06:04.854Z,2.73
2018-06-15T17:11:08.180Z,3.03
2018-06-15T17:16:11.438Z,3.10
2018-06-15T17:21:14.722Z,3.20
2018-06-15T17:26:17.723Z,3.57
2018-06-15T17:31:20.821Z,2.93
2018-06-15T17:36:24.140Z,2.63
2018-06-15T17:41:27.136Z,2.40
2018-06-15T17:46:30.404Z,5.60
2018-06-15T17:51:33.770Z,2.47
2018-06-15T17:56:36.884Z,2.13
2018-06-15T18:01:40.135Z,2.40
2018-06-15T18:06:43.380Z,5.33
2018-06-15T18:11:46.652Z,3.73
2018-06-15T18:16:50.328Z,2.77
2018-06-15T18:21:54.298Z,3.13
2018-06-15T18:26:57.843Z,4.57
2018-06-15T18:32:01.233Z,2.53
2018-06-15T18:37:04.776Z,2.90
2018-06-15T18:42:08.280Z,2.63
2018-06-15T18:47:11.883Z,3.47
2018-06-15T18:52:15.450Z,5.27
2018-06-15T18:57:19.593Z,4.20
2018-06-15T19:02:23.732Z,3.23
2018-06-15T19:07:27.416Z,3.77
2018-06-15T19:12:31.426Z,2.87
2018-06-15T19:17:35.011Z,3.27
2018-06-15T19:22:38.826Z,4.40
2018-06-15T19:27:44.318Z,3.20
2018-06-15T19:32:48.588Z,3.17
2018-06-15T19:37:52.415Z,4.83
2018-06-15T19:42:55.977Z,4.13
2018-06-15T19:47:59.621Z,5.67
2018-06-15T19:53:03.605Z,3.97
2018-06-15T19:58:07.048Z,5.53
2018-06-15T20:03:10.678Z,5.43
2018-06-15T20:08:14.339Z,5.03
2018-06-15T20:13:17.847Z,3.73
2018-06-15T20:18:21.510Z,4.57
2018-06-15T20:23:25.130Z,3.70
2018-06-15T20:28:29.048Z,4.73
2018-06-15T20:33:32.650Z,5.93
2018-06-15T20:38:36.279Z,4.73
2018-06-15T20:43:39.850Z,4.60
2018-06-15T20:48:43.412Z,6.53
2018-06-15T20:53:47.034Z,5.23
2018-06-15T20:58:50.326Z,4.90
2018-06-15T21:03:53.575Z,5.10
2018-06-15T21:08:56.863Z,5.10
2018-06-15T21:14:00.117Z,5.33
2018-06-15T21:19:03.384Z,6.63
2018-06-15T21:24:06.660Z,5.37
2018-06-15T21:29:09.938Z,6.30
2018-06-15T21:34:13.203Z,6.57
2018-06-15T21:39:16.489Z,5.73
2018-06-15T21:44:19.798Z,5.57
2018-06-15T21:49:23.047Z,5.43
2018-06-15T21:54:26.335Z,6.63
2018-06-15T21:59:29.653Z,5.83
2018-06-15T22:04:32.927Z,6.10
2018-06-15T22:09:36.180Z,6.27
2018-06-15T22:14:39.434Z,5.60
2018-06-15T22:19:42.712Z,6.23
2018-06-15T22:24:45.992Z,5.70
2018-06-15T22:29:49.235Z,5.50
2018-06-15T22:34:52.476Z,6.80
2018-06-15T22:39:55.730Z,7.13
2018-06-15T22:44:58.989Z,7.67
2018-06-15T22:50:02.255Z,6.80
2018-06-15T22:55:05.715Z,6.97
2018-06-15T23:00:08.967Z,7.37
2018-06-15T23:05:12.222Z,7.90
2018-06-15T23:10:15.489Z,7.63
2018-06-15T23:15:18.474Z,7.07
2018-06-15T23:20:21.726Z,7.60
2018-06-15T23:25:25.001Z,9.07
2018-06-15T23:30:28.255Z,8.40
2018-06-15T23:35:31.492Z,8.23
2018-06-15T23:40:34.812Z,10.83
2018-06-15T23:45:38.067Z,9.37
2018-06-15T23:50:41.332Z,8.80
2018-06-15T23:55:44.605Z,8.60
